PWSweather.com
Personal Weather Stations
Station Observations
KWABLAIN13
Ptl Weather, Blaine, WA

Ptl WeatherBlaine, WA

Lat: 48.997393, Lon: -122.748614

Elevation: 57

Station Type: Davis Advantage Pro 2

http://www.ptlnet.net

High Low Average
Temperature 53.3°F11.8°C 43.3°F6.3°C 48.0°F8.9°C
Dew Point 48.1°F8.9°C 38.9°F3.8°C 43.3°F6.3°C
Winds 16.0 mph 25.7 kmh Calm Calm 6.0 mph E9.7 kmh E
Wind Gusts 29.0 mph46.7 kmh 2.0 mph3.2 kmh 12.0 mph19.3 kmh
Humidity 93% 68% 84%
Pressure 30.12 in1020.0 mb 29.61 in1002.7 mb -
Precipitation 0.00 in0.0 mm - -
Hour Temp Dew Point Humidity Winds Wind Gusts Pressure Precip Precip Rate Daily Precip Total
12:05 AM 46.4°F8.0°C 39.9°F4.4°C 78% 5.0 mph NE8.0 kmh NE 7.0 mph11.3 kmh 30.12 in1020.0 mb 0.00 in0.0 mm 0.00 in0.0 mm 0.00 in0.0 mm
12:10 AM 46.4°F8.0°C 39.9°F4.4°C 78% 4.0 mph NE6.4 kmh NE 7.0 mph11.3 kmh 30.12 in1020.0 mb 0.00 in0.0 mm 0.00 in0.0 mm 0.00 in0.0 mm
12:25 AM 46.3°F7.9°C 40.2°F4.6°C 79% 3.0 mph NNE4.8 kmh NNE 9.0 mph14.5 kmh 30.10 in1019.3 mb 0.00 in0.0 mm 0.00 in0.0 mm 0.00 in0.0 mm
12:30 AM 46.1°F7.8°C 40.0°F4.4°C 79% 5.0 mph NNE8.0 kmh NNE 9.0 mph14.5 kmh 30.09 in1019.0 mb 0.00 in0.0 mm 0.00 in0.0 mm 0.00 in0.0 mm
12:45 AM 45.9°F7.7°C 39.8°F4.3°C 79% 3.0 mph NE4.8 kmh NE 8.0 mph12.9 kmh 30.09 in1019.0 mb 0.00 in0.0 mm 0.00 in0.0 mm 0.00 in0.0 mm
12:50 AM 45.9°F7.7°C 40.1°F4.5°C 80% 3.0 mph NNE4.8 kmh NNE 8.0 mph12.9 kmh 30.09 in1019.0 mb 0.00 in0.0 mm 0.00 in0.0 mm 0.00 in0.0 mm
01:05 AM 45.7°F7.6°C 39.9°F4.4°C 80% 2.0 mph ENE3.2 kmh ENE 5.0 mph8.0 kmh 30.10 in1019.3 mb 0.00 in0.0 mm 0.00 in0.0 mm 0.00 in0.0 mm
01:10 AM 45.6°F7.6°C 39.8°F4.3°C 80% 3.0 mph ENE4.8 kmh ENE 6.0 mph9.7 kmh 30.09 in1019.0 mb 0.00 in0.0 mm 0.00 in0.0 mm 0.00 in0.0 mm
01:25 AM 45.5°F7.5°C 39.7°F4.3°C 80% 1.0 mph ENE1.6 kmh ENE 5.0 mph8.0 kmh 30.08 in1018.6 mb 0.00 in0.0 mm 0.00 in0.0 mm 0.00 in0.0 mm
01:30 AM 45.5°F7.5°C 39.7°F4.3°C 80% 2.0 mph ENE3.2 kmh ENE 5.0 mph8.0 kmh 30.08 in1018.6 mb 0.00 in0.0 mm 0.00 in0.0 mm 0.00 in0.0 mm
01:45 AM 45.6°F7.6°C 39.8°F4.3°C 80% 1.0 mph NE1.6 kmh NE 3.0 mph4.8 kmh 30.07 in1018.3 mb 0.00 in0.0 mm 0.00 in0.0 mm 0.00 in0.0 mm
01:50 AM 45.7°F7.6°C 39.6°F4.2°C 79% Calm Calm 6.0 mph9.7 kmh 30.07 in1018.3 mb 0.00 in0.0 mm 0.00 in0.0 mm 0.00 in0.0 mm
02:05 AM 46.3°F7.9°C 39.8°F4.3°C 78% 4.0 mph E6.4 kmh E 10.0 mph16.1 kmh 30.05 in1017.6 mb 0.00 in0.0 mm 0.00 in0.0 mm 0.00 in0.0 mm
02:09 AM 46.3°F7.9°C 39.8°F4.3°C 78% 3.0 mph E4.8 kmh E 10.0 mph16.1 kmh 30.05 in1017.6 mb 0.00 in0.0 mm 0.00 in0.0 mm 0.00 in0.0 mm
02:25 AM 46.2°F7.9°C 39.7°F4.3°C 78% 6.0 mph ENE9.7 kmh ENE 13.0 mph20.9 kmh 30.03 in1016.9 mb 0.00 in0.0 mm 0.00 in0.0 mm 0.00 in0.0 mm
02:30 AM 46.5°F8.1°C 40.0°F4.4°C 78% 6.0 mph E9.7 kmh E 18.0 mph29.0 kmh 30.03 in1016.9 mb 0.00 in0.0 mm 0.00 in0.0 mm 0.00 in0.0 mm
02:44 AM 45.7°F7.6°C 39.9°F4.4°C 80% 4.0 mph E6.4 kmh E 6.0 mph9.7 kmh 30.04 in1017.3 mb 0.00 in0.0 mm 0.00 in0.0 mm 0.00 in0.0 mm
02:50 AM 45.5°F7.5°C 40.0°F4.4°C 81% 4.0 mph NE6.4 kmh NE 5.0 mph8.0 kmh 30.04 in1017.3 mb 0.00 in0.0 mm 0.00 in0.0 mm 0.00 in0.0 mm
03:05 AM 45.1°F7.3°C 39.9°F4.4°C 82% 1.0 mph NE1.6 kmh NE 4.0 mph6.4 kmh 30.05 in1017.6 mb 0.00 in0.0 mm 0.00 in0.0 mm 0.00 in0.0 mm
03:10 AM 45.0°F7.2°C 39.9°F4.4°C 82% 3.0 mph NE4.8 kmh NE 3.0 mph4.8 kmh 30.05 in1017.6 mb 0.00 in0.0 mm 0.00 in0.0 mm 0.00 in0.0 mm
03:24 AM 44.9°F7.2°C 39.8°F4.3°C 82% 4.0 mph NE6.4 kmh NE 4.0 mph6.4 kmh 30.04 in1017.3 mb 0.00 in0.0 mm 0.00 in0.0 mm 0.00 in0.0 mm
03:30 AM 44.9°F7.2°C 39.8°F4.3°C 82% 4.0 mph NE6.4 kmh NE 4.0 mph6.4 kmh 30.04 in1017.3 mb 0.00 in0.0 mm 0.00 in0.0 mm 0.00 in0.0 mm
03:45 AM 45.0°F7.2°C 39.5°F4.2°C 81% 4.0 mph NE6.4 kmh NE 4.0 mph6.4 kmh 30.04 in1017.3 mb 0.00 in0.0 mm 0.00 in0.0 mm 0.00 in0.0 mm
03:50 AM 45.2°F7.3°C 39.4°F4.1°C 80% 4.0 mph NE6.4 kmh NE 4.0 mph6.4 kmh 30.04 in1017.3 mb 0.00 in0.0 mm 0.00 in0.0 mm 0.00 in0.0 mm
04:05 AM 46.0°F7.8°C 38.9°F3.8°C 76% 4.0 mph NE6.4 kmh NE 4.0 mph6.4 kmh 30.04 in1017.3 mb 0.00 in0.0 mm 0.00 in0.0 mm 0.00 in0.0 mm
04:09 AM 46.6°F8.1°C 39.1°F3.9°C 75% 4.0 mph NE6.4 kmh NE 4.0 mph6.4 kmh 30.04 in1017.3 mb 0.00 in0.0 mm 0.00 in0.0 mm 0.00 in0.0 mm
04:25 AM 48.1°F8.9°C 39.2°F4.0°C 71% 4.0 mph NE6.4 kmh NE 4.0 mph6.4 kmh 30.02 in1016.6 mb 0.00 in0.0 mm 0.00 in0.0 mm 0.00 in0.0 mm
04:29 AM 48.4°F9.1°C 39.1°F3.9°C 70% 4.0 mph NE6.4 kmh NE 4.0 mph6.4 kmh 30.03 in1016.9 mb 0.00 in0.0 mm 0.00 in0.0 mm 0.00 in0.0 mm
04:45 AM 49.1°F9.5°C 39.4°F4.1°C 69% 4.0 mph NE6.4 kmh NE 4.0 mph6.4 kmh 30.02 in1016.6 mb 0.00 in0.0 mm 0.00 in0.0 mm 0.00 in0.0 mm
04:50 AM 49.3°F9.6°C 39.2°F4.0°C 68% 4.0 mph NE6.4 kmh NE 4.0 mph6.4 kmh 30.02 in1016.6 mb 0.00 in0.0 mm 0.00 in0.0 mm 0.00 in0.0 mm
05:05 AM 48.6°F9.2°C 40.7°F4.8°C 74% 4.0 mph NE6.4 kmh NE 4.0 mph6.4 kmh 30.02 in1016.6 mb 0.00 in0.0 mm 0.00 in0.0 mm 0.00 in0.0 mm
05:10 AM 48.1°F8.9°C 40.6°F4.8°C 75% 4.0 mph NE6.4 kmh NE 4.0 mph6.4 kmh 30.02 in1016.6 mb 0.00 in0.0 mm 0.00 in0.0 mm 0.00 in0.0 mm
05:25 AM 45.9°F7.7°C 40.4°F4.7°C 81% 4.0 mph NE6.4 kmh NE 4.0 mph6.4 kmh 30.01 in1016.3 mb 0.00 in0.0 mm 0.00 in0.0 mm 0.00 in0.0 mm
05:30 AM 45.5°F7.5°C 40.7°F4.8°C 83% 4.0 mph NE6.4 kmh NE 4.0 mph6.4 kmh 30.01 in1016.3 mb 0.01 in0.3 mm 0.12 in3.0 mm 0.01 in0.3 mm
05:44 AM 44.9°F7.2°C 40.7°F4.8°C 85% 4.0 mph NE6.4 kmh NE 8.0 mph12.9 kmh 30.00 in1015.9 mb 0.01 in0.3 mm 0.00 in0.0 mm 0.01 in0.3 mm
05:49 AM 44.7°F7.1°C 40.8°F4.9°C 86% 2.0 mph ENE3.2 kmh ENE 9.0 mph14.5 kmh 29.99 in1015.6 mb 0.02 in0.5 mm 0.12 in3.0 mm 0.02 in0.5 mm
06:05 AM 44.5°F6.9°C 40.9°F4.9°C 87% 3.0 mph NE4.8 kmh NE 8.0 mph12.9 kmh 29.97 in1014.9 mb 0.02 in0.5 mm 0.00 in0.0 mm 0.02 in0.5 mm
06:10 AM 44.4°F6.9°C 40.8°F4.9°C 87% 3.0 mph NE4.8 kmh NE 3.0 mph4.8 kmh 29.97 in1014.9 mb 0.02 in0.5 mm 0.00 in0.0 mm 0.02 in0.5 mm
06:25 AM 44.5°F6.9°C 41.2°F5.1°C 88% 5.0 mph ENE8.0 kmh ENE 12.0 mph19.3 kmh 29.97 in1014.9 mb 0.04 in1.0 mm 0.08 in2.0 mm 0.04 in1.0 mm
06:30 AM 44.4°F6.9°C 41.4°F5.2°C 89% 7.0 mph E11.3 kmh E 12.0 mph19.3 kmh 29.96 in1014.6 mb 0.04 in1.0 mm 0.00 in0.0 mm 0.04 in1.0 mm
06:45 AM 44.1°F6.7°C 41.4°F5.2°C 90% 5.0 mph NE8.0 kmh NE 10.0 mph16.1 kmh 29.96 in1014.6 mb 0.03 in0.8 mm 0.00 in0.0 mm 0.04 in1.0 mm
06:50 AM 44.0°F6.7°C 41.3°F5.2°C 90% 3.0 mph NE4.8 kmh NE 4.0 mph6.4 kmh 29.96 in1014.6 mb 0.03 in0.8 mm 0.00 in0.0 mm 0.04 in1.0 mm
07:05 AM 43.8°F6.6°C 41.4°F5.2°C 91% 5.0 mph E8.0 kmh E 10.0 mph16.1 kmh 29.95 in1014.2 mb 0.04 in1.0 mm 0.01 in0.3 mm 0.05 in1.3 mm
07:10 AM 43.7°F6.5°C 41.3°F5.2°C 91% 5.0 mph NE8.0 kmh NE 10.0 mph16.1 kmh 29.94 in1013.9 mb 0.04 in1.0 mm 0.00 in0.0 mm 0.05 in1.3 mm
07:24 AM 43.5°F6.4°C 41.3°F5.2°C 92% 7.0 mph ENE11.3 kmh ENE 11.0 mph17.7 kmh 29.93 in1013.5 mb 0.05 in1.3 mm 0.04 in1.0 mm 0.06 in1.5 mm
07:30 AM 43.5°F6.4°C 41.6°F5.3°C 93% 6.0 mph NE9.7 kmh NE 11.0 mph17.7 kmh 29.92 in1013.2 mb 0.05 in1.3 mm 0.00 in0.0 mm 0.06 in1.5 mm
07:45 AM 43.4°F6.3°C 41.5°F5.3°C 93% 7.0 mph ENE11.3 kmh ENE 11.0 mph17.7 kmh 29.93 in1013.5 mb 0.06 in1.5 mm 0.04 in1.0 mm 0.07 in1.8 mm
07:49 AM 43.5°F6.4°C 41.6°F5.3°C 93% 8.0 mph NNE12.9 kmh NNE 12.0 mph19.3 kmh 29.92 in1013.2 mb 0.06 in1.5 mm 0.00 in0.0 mm 0.07 in1.8 mm
08:04 AM 43.4°F6.3°C 41.2°F5.1°C 92% 4.0 mph NE6.4 kmh NE 14.0 mph22.5 kmh 29.91 in1012.9 mb 0.05 in1.3 mm 0.00 in0.0 mm 0.07 in1.8 mm
08:09 AM 43.4°F6.3°C 41.2°F5.1°C 92% 5.0 mph NNE8.0 kmh NNE 16.0 mph25.7 kmh 29.91 in1012.9 mb 0.05 in1.3 mm 0.00 in0.0 mm 0.07 in1.8 mm
08:25 AM 43.4°F6.3°C 41.2°F5.1°C 92% 8.0 mph E12.9 kmh E 13.0 mph20.9 kmh 29.92 in1013.2 mb 0.04 in1.0 mm 0.00 in0.0 mm 0.07 in1.8 mm
08:29 AM 43.3°F6.3°C 41.1°F5.1°C 92% 7.0 mph ENE11.3 kmh ENE 13.0 mph20.9 kmh 29.92 in1013.2 mb 0.04 in1.0 mm 0.00 in0.0 mm 0.07 in1.8 mm
08:45 AM 43.4°F6.3°C 41.0°F5.0°C 91% 7.0 mph ENE11.3 kmh ENE 14.0 mph22.5 kmh 29.91 in1012.9 mb 0.01 in0.3 mm 0.00 in0.0 mm 0.07 in1.8 mm
08:50 AM 43.5°F6.4°C 41.1°F5.1°C 91% 10.0 mph NE16.1 kmh NE 14.0 mph22.5 kmh 29.91 in1012.9 mb 0.01 in0.3 mm 0.00 in0.0 mm 0.07 in1.8 mm
09:05 AM 43.6°F6.4°C 41.2°F5.1°C 91% 4.0 mph NE6.4 kmh NE 14.0 mph22.5 kmh 29.89 in1012.2 mb 0.00 in0.0 mm 0.00 in0.0 mm 0.07 in1.8 mm
09:10 AM 43.7°F6.5°C 41.0°F5.0°C 90% 4.0 mph NE6.4 kmh NE 14.0 mph22.5 kmh 29.90 in1012.5 mb 0.00 in0.0 mm 0.00 in0.0 mm 0.07 in1.8 mm
09:25 AM 43.9°F6.6°C 41.2°F5.1°C 90% 6.0 mph E9.7 kmh E 14.0 mph22.5 kmh 29.90 in1012.5 mb 0.00 in0.0 mm 0.00 in0.0 mm 0.07 in1.8 mm
09:29 AM 43.9°F6.6°C 41.2°F5.1°C 90% 7.0 mph NE11.3 kmh NE 14.0 mph22.5 kmh 29.90 in1012.5 mb 0.00 in0.0 mm 0.00 in0.0 mm 0.07 in1.8 mm
09:45 AM 44.2°F6.8°C 41.5°F5.3°C 90% 5.0 mph N8.0 kmh N 9.0 mph14.5 kmh 29.90 in1012.5 mb 0.00 in0.0 mm 0.00 in0.0 mm 0.07 in1.8 mm
09:50 AM 44.3°F6.8°C 41.3°F5.2°C 89% 5.0 mph NE8.0 kmh NE 10.0 mph16.1 kmh 29.89 in1012.2 mb 0.00 in0.0 mm 0.00 in0.0 mm 0.07 in1.8 mm
10:05 AM 44.6°F7.0°C 41.6°F5.3°C 89% 7.0 mph ENE11.3 kmh ENE 10.0 mph16.1 kmh 29.89 in1012.2 mb 0.00 in0.0 mm 0.00 in0.0 mm 0.07 in1.8 mm
10:10 AM 44.8°F7.1°C 41.8°F5.4°C 89% 6.0 mph ENE9.7 kmh ENE 10.0 mph16.1 kmh 29.89 in1012.2 mb 0.00 in0.0 mm 0.00 in0.0 mm 0.07 in1.8 mm
10:25 AM 45.7°F7.6°C 42.1°F5.6°C 87% 4.0 mph E6.4 kmh E 10.0 mph16.1 kmh 29.88 in1011.9 mb 0.00 in0.0 mm 0.00 in0.0 mm 0.07 in1.8 mm
10:30 AM 45.9°F7.7°C 42.0°F5.6°C 86% 8.0 mph NE12.9 kmh NE 16.0 mph25.7 kmh 29.88 in1011.9 mb 0.00 in0.0 mm 0.00 in0.0 mm 0.07 in1.8 mm
10:45 AM 45.9°F7.7°C 41.7°F5.4°C 85% 8.0 mph NE12.9 kmh NE 16.0 mph25.7 kmh 29.86 in1011.2 mb 0.00 in0.0 mm 0.00 in0.0 mm 0.07 in1.8 mm
10:49 AM 45.9°F7.7°C 41.7°F5.4°C 85% 10.0 mph NE16.1 kmh NE 16.0 mph25.7 kmh 29.86 in1011.2 mb 0.00 in0.0 mm 0.00 in0.0 mm 0.07 in1.8 mm
11:05 AM 45.8°F7.7°C 41.6°F5.3°C 85% 11.0 mph NE17.7 kmh NE 17.0 mph27.4 kmh 29.84 in1010.5 mb 0.00 in0.0 mm 0.00 in0.0 mm 0.07 in1.8 mm
11:10 AM 45.8°F7.7°C 41.6°F5.3°C 85% 6.0 mph ENE9.7 kmh ENE 17.0 mph27.4 kmh 29.82 in1009.8 mb 0.00 in0.0 mm 0.00 in0.0 mm 0.07 in1.8 mm
11:25 AM 46.2°F7.9°C 42.0°F5.6°C 85% 8.0 mph NE12.9 kmh NE 16.0 mph25.7 kmh 29.83 in1010.2 mb 0.00 in0.0 mm 0.00 in0.0 mm 0.07 in1.8 mm
11:30 AM 46.5°F8.1°C 41.9°F5.5°C 84% 5.0 mph NE8.0 kmh NE 16.0 mph25.7 kmh 29.82 in1009.8 mb 0.00 in0.0 mm 0.00 in0.0 mm 0.07 in1.8 mm
11:45 AM 46.8°F8.2°C 42.2°F5.7°C 84% 6.0 mph NE9.7 kmh NE 9.0 mph14.5 kmh 29.81 in1009.5 mb 0.00 in0.0 mm 0.00 in0.0 mm 0.07 in1.8 mm
11:50 AM 46.9°F8.3°C 42.3°F5.7°C 84% 6.0 mph NE9.7 kmh NE 11.0 mph17.7 kmh 29.80 in1009.1 mb 0.00 in0.0 mm 0.00 in0.0 mm 0.07 in1.8 mm
12:05 PM 47.0°F8.3°C 42.4°F5.8°C 84% 3.0 mph ENE4.8 kmh ENE 16.0 mph25.7 kmh 29.77 in1008.1 mb 0.00 in0.0 mm 0.00 in0.0 mm 0.07 in1.8 mm
12:10 PM 47.1°F8.4°C 42.2°F5.7°C 83% 3.0 mph NE4.8 kmh NE 16.0 mph25.7 kmh 29.77 in1008.1 mb 0.00 in0.0 mm 0.00 in0.0 mm 0.07 in1.8 mm
12:25 PM 47.4°F8.6°C 42.5°F5.8°C 83% 3.0 mph NE4.8 kmh NE 10.0 mph16.1 kmh 29.76 in1007.8 mb 0.00 in0.0 mm 0.00 in0.0 mm 0.07 in1.8 mm
12:30 PM 47.6°F8.7°C 42.7°F5.9°C 83% 3.0 mph NE4.8 kmh NE 10.0 mph16.1 kmh 29.76 in1007.8 mb 0.00 in0.0 mm 0.00 in0.0 mm 0.07 in1.8 mm
12:45 PM 47.9°F8.8°C 42.7°F5.9°C 82% 8.0 mph NE12.9 kmh NE 10.0 mph16.1 kmh 29.73 in1006.8 mb 0.00 in0.0 mm 0.00 in0.0 mm 0.07 in1.8 mm
12:50 PM 48.1°F8.9°C 42.9°F6.1°C 82% 8.0 mph ENE12.9 kmh ENE 10.0 mph16.1 kmh 29.73 in1006.8 mb 0.00 in0.0 mm 0.00 in0.0 mm 0.07 in1.8 mm
01:05 PM 48.2°F9.0°C 43.0°F6.1°C 82% 5.0 mph NE8.0 kmh NE 8.0 mph12.9 kmh 29.71 in1006.1 mb 0.00 in0.0 mm 0.00 in0.0 mm 0.07 in1.8 mm
01:10 PM 48.3°F9.1°C 43.1°F6.2°C 82% 4.0 mph ENE6.4 kmh ENE 5.0 mph8.0 kmh 29.72 in1006.4 mb 0.00 in0.0 mm 0.00 in0.0 mm 0.07 in1.8 mm
01:25 PM 48.6°F9.2°C 43.0°F6.1°C 81% 4.0 mph NE6.4 kmh NE 12.0 mph19.3 kmh 29.70 in1005.8 mb 0.00 in0.0 mm 0.00 in0.0 mm 0.07 in1.8 mm
01:30 PM 48.7°F9.3°C 43.1°F6.2°C 81% 2.0 mph NE3.2 kmh NE 12.0 mph19.3 kmh 29.70 in1005.8 mb 0.00 in0.0 mm 0.00 in0.0 mm 0.07 in1.8 mm
01:45 PM 48.7°F9.3°C 42.8°F6.0°C 80% 1.0 mph NE1.6 kmh NE 7.0 mph11.3 kmh 29.69 in1005.4 mb 0.00 in0.0 mm 0.00 in0.0 mm 0.07 in1.8 mm
01:50 PM 48.7°F9.3°C 42.8°F6.0°C 80% 3.0 mph N4.8 kmh N 3.0 mph4.8 kmh 29.69 in1005.4 mb 0.00 in0.0 mm 0.00 in0.0 mm 0.07 in1.8 mm
02:05 PM 49.1°F9.5°C 42.9°F6.1°C 79% 2.0 mph N3.2 kmh N 6.0 mph9.7 kmh 29.70 in1005.8 mb 0.00 in0.0 mm 0.00 in0.0 mm 0.07 in1.8 mm
02:10 PM 49.2°F9.6°C 43.0°F6.1°C 79% 1.0 mph N1.6 kmh N 8.0 mph12.9 kmh 29.70 in1005.8 mb 0.00 in0.0 mm 0.00 in0.0 mm 0.07 in1.8 mm
02:24 PM 49.2°F9.6°C 43.6°F6.4°C 81% 1.0 mph NNE1.6 kmh NNE 2.0 mph3.2 kmh 29.71 in1006.1 mb 0.00 in0.0 mm 0.00 in0.0 mm 0.07 in1.8 mm
02:29 PM 49.1°F9.5°C 44.2°F6.8°C 83% 3.0 mph NNE4.8 kmh NNE 4.0 mph6.4 kmh 29.70 in1005.8 mb 0.01 in0.3 mm 0.12 in3.0 mm 0.08 in2.0 mm
02:45 PM 48.4°F9.1°C 44.4°F6.9°C 86% 1.0 mph NE1.6 kmh NE 3.0 mph4.8 kmh 29.70 in1005.8 mb 0.03 in0.8 mm 0.08 in2.0 mm 0.10 in2.5 mm
02:50 PM 48.1°F8.9°C 44.7°F7.1°C 88% 1.0 mph NE1.6 kmh NE 3.0 mph4.8 kmh 29.70 in1005.8 mb 0.03 in0.8 mm 0.00 in0.0 mm 0.10 in2.5 mm
03:05 PM 47.2°F8.4°C 44.7°F7.1°C 91% 2.0 mph NE3.2 kmh NE 3.0 mph4.8 kmh 29.71 in1006.1 mb 0.06 in1.5 mm 0.04 in1.0 mm 0.13 in3.3 mm
03:10 PM 47.1°F8.4°C 44.6°F7.0°C 91% 4.0 mph NE6.4 kmh NE 4.0 mph6.4 kmh 29.70 in1005.8 mb 0.06 in1.5 mm 0.00 in0.0 mm 0.13 in3.3 mm
03:25 PM 47.0°F8.3°C 44.8°F7.1°C 92% 1.0 mph ENE1.6 kmh ENE 3.0 mph4.8 kmh 29.68 in1005.1 mb 0.08 in2.0 mm 0.08 in2.0 mm 0.15 in3.8 mm
03:30 PM 46.9°F8.3°C 45.0°F7.2°C 93% 2.0 mph ENE3.2 kmh ENE 4.0 mph6.4 kmh 29.68 in1005.1 mb 0.08 in2.0 mm 0.00 in0.0 mm 0.15 in3.8 mm
03:45 PM 48.6°F9.2°C 46.7°F8.2°C 93% 4.0 mph SSE6.4 kmh SSE 14.0 mph22.5 kmh 29.67 in1004.7 mb 0.07 in1.8 mm 0.00 in0.0 mm 0.15 in3.8 mm
03:50 PM 49.5°F9.7°C 47.0°F8.3°C 91% 3.0 mph S4.8 kmh S 14.0 mph22.5 kmh 29.66 in1004.4 mb 0.07 in1.8 mm 0.00 in0.0 mm 0.15 in3.8 mm
04:05 PM 51.2°F10.7°C 47.2°F8.4°C 86% 14.0 mph SE22.5 kmh SE 18.0 mph29.0 kmh 29.67 in1004.7 mb 0.04 in1.0 mm 0.00 in0.0 mm 0.15 in3.8 mm
04:10 PM 51.8°F11.0°C 46.8°F8.2°C 83% 9.0 mph SSE14.5 kmh SSE 18.0 mph29.0 kmh 29.67 in1004.7 mb 0.04 in1.0 mm 0.00 in0.0 mm 0.15 in3.8 mm
04:25 PM 52.0°F11.1°C 47.0°F8.3°C 83% 5.0 mph SE8.0 kmh SE 16.0 mph25.7 kmh 29.68 in1005.1 mb 0.01 in0.3 mm 0.00 in0.0 mm 0.15 in3.8 mm
04:30 PM 52.0°F11.1°C 47.0°F8.3°C 83% 14.0 mph SSE22.5 kmh SSE 21.0 mph33.8 kmh 29.67 in1004.7 mb 0.01 in0.3 mm 0.00 in0.0 mm 0.15 in3.8 mm
04:44 PM 52.6°F11.4°C 47.3°F8.5°C 82% 7.0 mph SSE11.3 kmh SSE 14.0 mph22.5 kmh 29.67 in1004.7 mb 0.00 in0.0 mm 0.00 in0.0 mm 0.15 in3.8 mm
04:49 PM 52.8°F11.6°C 47.5°F8.6°C 82% 16.0 mph S25.7 kmh S 23.0 mph37.0 kmh 29.66 in1004.4 mb 0.00 in0.0 mm 0.00 in0.0 mm 0.15 in3.8 mm
05:04 PM 53.2°F11.8°C 47.5°F8.6°C 81% 11.0 mph SE17.7 kmh SE 20.0 mph32.2 kmh 29.66 in1004.4 mb 0.00 in0.0 mm 0.00 in0.0 mm 0.15 in3.8 mm
05:10 PM 53.3°F11.8°C 47.6°F8.7°C 81% 11.0 mph SE17.7 kmh SE 21.0 mph33.8 kmh 29.66 in1004.4 mb 0.00 in0.0 mm 0.00 in0.0 mm 0.15 in3.8 mm
05:25 PM 53.3°F11.8°C 48.0°F8.9°C 82% 15.0 mph SSE24.1 kmh SSE 27.0 mph43.5 kmh 29.65 in1004.1 mb 0.00 in0.0 mm 0.00 in0.0 mm 0.15 in3.8 mm
05:30 PM 53.3°F11.8°C 48.0°F8.9°C 82% 13.0 mph SSE20.9 kmh SSE 27.0 mph43.5 kmh 29.65 in1004.1 mb 0.00 in0.0 mm 0.00 in0.0 mm 0.15 in3.8 mm
05:44 PM 53.1°F11.7°C 47.8°F8.8°C 82% 6.0 mph SE9.7 kmh SE 21.0 mph33.8 kmh 29.64 in1003.7 mb 0.00 in0.0 mm 0.00 in0.0 mm 0.15 in3.8 mm
05:49 PM 53.0°F11.7°C 47.7°F8.7°C 82% 12.0 mph SSE19.3 kmh SSE 23.0 mph37.0 kmh 29.64 in1003.7 mb 0.00 in0.0 mm 0.00 in0.0 mm 0.15 in3.8 mm
06:05 PM 52.8°F11.6°C 47.8°F8.8°C 83% 11.0 mph S17.7 kmh S 21.0 mph33.8 kmh 29.64 in1003.7 mb 0.00 in0.0 mm 0.00 in0.0 mm 0.15 in3.8 mm
06:10 PM 52.8°F11.6°C 47.8°F8.8°C 83% 5.0 mph SE8.0 kmh SE 21.0 mph33.8 kmh 29.64 in1003.7 mb 0.00 in0.0 mm 0.00 in0.0 mm 0.15 in3.8 mm
06:25 PM 52.6°F11.4°C 47.9°F8.8°C 84% 14.0 mph SE22.5 kmh SE 22.0 mph35.4 kmh 29.64 in1003.7 mb 0.00 in0.0 mm 0.00 in0.0 mm 0.15 in3.8 mm
06:30 PM 52.5°F11.4°C 48.1°F8.9°C 85% 11.0 mph SSE17.7 kmh SSE 22.0 mph35.4 kmh 29.64 in1003.7 mb 0.00 in0.0 mm 0.00 in0.0 mm 0.15 in3.8 mm
06:45 PM 52.3°F11.3°C 47.6°F8.7°C 84% 13.0 mph SSE20.9 kmh SSE 29.0 mph46.7 kmh 29.63 in1003.4 mb 0.00 in0.0 mm 0.00 in0.0 mm 0.15 in3.8 mm
06:49 PM 52.3°F11.3°C 47.6°F8.7°C 84% 9.0 mph S14.5 kmh S 29.0 mph46.7 kmh 29.63 in1003.4 mb 0.00 in0.0 mm 0.00 in0.0 mm 0.15 in3.8 mm
07:04 PM 52.2°F11.2°C 47.5°F8.6°C 84% 7.0 mph SSW11.3 kmh SSW 25.0 mph40.2 kmh 29.64 in1003.7 mb 0.00 in0.0 mm 0.00 in0.0 mm 0.15 in3.8 mm
07:10 PM 52.2°F11.2°C 47.5°F8.6°C 84% 15.0 mph E24.1 kmh E 15.0 mph24.1 kmh 29.64 in1003.7 mb 0.00 in0.0 mm 0.00 in0.0 mm 0.15 in3.8 mm
07:25 PM 52.2°F11.2°C 47.2°F8.4°C 83% 11.0 mph SSE17.7 kmh SSE 17.0 mph27.4 kmh 29.64 in1003.7 mb 0.00 in0.0 mm 0.00 in0.0 mm 0.15 in3.8 mm
07:29 PM 52.2°F11.2°C 47.2°F8.4°C 83% 11.0 mph S17.7 kmh S 19.0 mph30.6 kmh 29.64 in1003.7 mb 0.00 in0.0 mm 0.00 in0.0 mm 0.15 in3.8 mm
07:45 PM 52.0°F11.1°C 47.0°F8.3°C 83% 5.0 mph S8.0 kmh S 16.0 mph25.7 kmh 29.64 in1003.7 mb 0.00 in0.0 mm 0.00 in0.0 mm 0.15 in3.8 mm
07:50 PM 52.0°F11.1°C 47.0°F8.3°C 83% 6.0 mph SE9.7 kmh SE 16.0 mph25.7 kmh 29.64 in1003.7 mb 0.00 in0.0 mm 0.00 in0.0 mm 0.15 in3.8 mm
08:04 PM 51.9°F11.1°C 46.9°F8.3°C 83% 7.0 mph SSE11.3 kmh SSE 10.0 mph16.1 kmh 29.63 in1003.4 mb 0.00 in0.0 mm 0.00 in0.0 mm 0.15 in3.8 mm
08:10 PM 51.8°F11.0°C 46.8°F8.2°C 83% 4.0 mph SE6.4 kmh SE 13.0 mph20.9 kmh 29.63 in1003.4 mb 0.00 in0.0 mm 0.00 in0.0 mm 0.15 in3.8 mm
08:25 PM 51.7°F10.9°C 46.7°F8.2°C 83% 9.0 mph S14.5 kmh S 15.0 mph24.1 kmh 29.62 in1003.0 mb 0.00 in0.0 mm 0.00 in0.0 mm 0.15 in3.8 mm
08:30 PM 51.7°F10.9°C 46.7°F8.2°C 83% 2.0 mph SSW3.2 kmh SSW 18.0 mph29.0 kmh 29.62 in1003.0 mb 0.00 in0.0 mm 0.00 in0.0 mm 0.15 in3.8 mm
08:45 PM 51.8°F11.0°C 46.8°F8.2°C 83% 8.0 mph S12.9 kmh S 18.0 mph29.0 kmh 29.63 in1003.4 mb 0.00 in0.0 mm 0.00 in0.0 mm 0.15 in3.8 mm
08:50 PM 51.8°F11.0°C 46.8°F8.2°C 83% 7.0 mph ESE11.3 kmh ESE 11.0 mph17.7 kmh 29.63 in1003.4 mb 0.00 in0.0 mm 0.00 in0.0 mm 0.15 in3.8 mm
09:05 PM 51.9°F11.1°C 46.9°F8.3°C 83% 1.0 mph SE1.6 kmh SE 14.0 mph22.5 kmh 29.61 in1002.7 mb 0.00 in0.0 mm 0.00 in0.0 mm 0.15 in3.8 mm
09:10 PM 51.8°F11.0°C 46.8°F8.2°C 83% 8.0 mph S12.9 kmh S 18.0 mph29.0 kmh 29.61 in1002.7 mb 0.00 in0.0 mm 0.00 in0.0 mm 0.15 in3.8 mm
09:25 PM 51.9°F11.1°C 46.9°F8.3°C 83% 6.0 mph SE9.7 kmh SE 16.0 mph25.7 kmh 29.61 in1002.7 mb 0.00 in0.0 mm 0.00 in0.0 mm 0.15 in3.8 mm
09:29 PM 51.9°F11.1°C 46.9°F8.3°C 83% 14.0 mph SE22.5 kmh SE 17.0 mph27.4 kmh 29.62 in1003.0 mb 0.00 in0.0 mm 0.00 in0.0 mm 0.15 in3.8 mm
09:45 PM 51.8°F11.0°C 47.1°F8.4°C 84% 6.0 mph SE9.7 kmh SE 11.0 mph17.7 kmh 29.62 in1003.0 mb 0.00 in0.0 mm 0.00 in0.0 mm 0.15 in3.8 mm
09:50 PM 51.7°F10.9°C 47.0°F8.3°C 84% 10.0 mph S16.1 kmh S 13.0 mph20.9 kmh 29.62 in1003.0 mb 0.00 in0.0 mm 0.00 in0.0 mm 0.15 in3.8 mm
10:05 PM 51.7°F10.9°C 47.0°F8.3°C 84% 6.0 mph SSE9.7 kmh SSE 16.0 mph25.7 kmh 29.63 in1003.4 mb 0.00 in0.0 mm 0.00 in0.0 mm 0.15 in3.8 mm
10:10 PM 51.7°F10.9°C 47.3°F8.5°C 85% 11.0 mph SE17.7 kmh SE 16.0 mph25.7 kmh 29.63 in1003.4 mb 0.00 in0.0 mm 0.00 in0.0 mm 0.15 in3.8 mm
10:24 PM 51.7°F10.9°C 47.3°F8.5°C 85% 4.0 mph S6.4 kmh S 16.0 mph25.7 kmh 29.64 in1003.7 mb 0.00 in0.0 mm 0.00 in0.0 mm 0.15 in3.8 mm
10:30 PM 51.5°F10.8°C 47.2°F8.4°C 85% 6.0 mph SW9.7 kmh SW 16.0 mph25.7 kmh 29.64 in1003.7 mb 0.00 in0.0 mm 0.00 in0.0 mm 0.15 in3.8 mm
10:45 PM 51.3°F10.7°C 47.0°F8.3°C 85% 9.0 mph S14.5 kmh S 15.0 mph24.1 kmh 29.66 in1004.4 mb 0.00 in0.0 mm 0.00 in0.0 mm 0.15 in3.8 mm
10:50 PM 51.2°F10.7°C 47.2°F8.4°C 86% 14.0 mph SW22.5 kmh SW 20.0 mph32.2 kmh 29.66 in1004.4 mb 0.00 in0.0 mm 0.00 in0.0 mm 0.15 in3.8 mm
11:05 PM 50.7°F10.4°C 47.0°F8.3°C 87% 9.0 mph SW14.5 kmh SW 17.0 mph27.4 kmh 29.68 in1005.1 mb 0.01 in0.3 mm 0.01 in0.3 mm 0.16 in4.1 mm
11:10 PM 50.2°F10.1°C 46.8°F8.2°C 88% 5.0 mph S8.0 kmh S 17.0 mph27.4 kmh 29.66 in1004.4 mb 0.01 in0.3 mm 0.00 in0.0 mm 0.16 in4.1 mm
11:25 PM 49.2°F9.6°C 46.7°F8.2°C 91% 6.0 mph SW9.7 kmh SW 7.0 mph11.3 kmh 29.66 in1004.4 mb 0.01 in0.3 mm 0.00 in0.0 mm 0.16 in4.1 mm
11:30 PM 49.0°F9.4°C 46.5°F8.1°C 91% 10.0 mph SSW16.1 kmh SSW 10.0 mph16.1 kmh 29.67 in1004.7 mb 0.01 in0.3 mm 0.00 in0.0 mm 0.16 in4.1 mm
11:44 PM 48.6°F9.2°C 46.1°F7.8°C 91% 7.0 mph SSW11.3 kmh SSW 15.0 mph24.1 kmh 29.68 in1005.1 mb 0.01 in0.3 mm 0.00 in0.0 mm 0.16 in4.1 mm
11:50 PM 48.6°F9.2°C 46.1°F7.8°C 91% 5.0 mph SW8.0 kmh SW 5.0 mph8.0 kmh 29.67 in1004.7 mb 0.01 in0.3 mm 0.00 in0.0 mm 0.16 in4.1 mm